Time;durP1;ratioP1;P1;durP2;ratioP2;P2;SDS_P1;SDS_P2;PMS_P1;PMS_P2;Temp;Humidity;BMP_temperature;BMP_pressure;BME280_temperature;BME280_humidity;BME280_pressure;Samples;Min_cycle;Max_cycle;Signal;HPM_P1;HPM_P2
2022/01/28 00:00:49;;;;;;;8.90;1.50;;;5.10;99.90;;;;;;4975070;28;20049;-82
2022/01/28 00:03:16;;;;;;;7.68;1.35;;;5.10;99.90;;;;;;4989301;28;20117;-83
2022/01/28 00:05:42;;;;;;;6.63;1.73;;;4.70;99.90;;;;;;4994077;28;20128;-81
2022/01/28 00:08:08;;;;;;;9.60;1.63;;;4.20;99.90;;;;;;4988163;28;20094;-80
2022/01/28 00:10:37;;;;;;;0.70;0.70;;;3.90;99.90;;;;;;4974182;28;20045;-81
2022/01/28 00:16:44;;;;;;;3.00;1.27;;;3.40;99.90;;;;;;4988816;28;20152;-78
2022/01/28 00:19:01;;;;;;;1.85;1.70;;;3.30;99.90;;;;;;4979099;28;20407;-78
2022/01/28 00:40:25;;;;;;;2.05;1.52;;;3.80;99.90;;;;;;4990691;28;20057;-81
2022/01/28 00:42:50;;;;;;;7.47;2.03;;;3.90;99.90;;;;;;4998068;28;20042;-80
2022/01/28 00:45:18;;;;;;;5.85;1.55;;;4.10;99.90;;;;;;4989056;28;20049;-82
2022/01/28 00:47:46;;;;;;;9.57;1.83;;;4.40;99.90;;;;;;4999734;28;20057;-79
2022/01/28 00:50:13;;;;;;;5.85;1.52;;;4.50;99.90;;;;;;4974781;28;20050;-78
2022/01/28 00:52:39;;;;;;;5.22;1.75;;;4.60;99.90;;;;;;4957623;28;20130;-80
2022/01/28 00:55:05;;;;;;;4.97;2.40;;;4.70;99.90;;;;;;5003530;28;20129;-80
2022/01/28 00:57:31;;;;;;;12.10;2.08;;;4.80;99.90;;;;;;5010861;28;20046;-79
2022/01/28 00:59:57;;;;;;;4.57;1.67;;;4.80;99.90;;;;;;4996001;28;20081;-83
2022/01/28 01:02:23;;;;;;;1.55;0.90;;;4.80;99.90;;;;;;4980822;28;20124;-82
2022/01/28 01:04:49;;;;;;;2.67;1.83;;;4.60;99.90;;;;;;4979885;28;20139;-82
2022/01/28 01:07:15;;;;;;;5.82;1.70;;;4.40;99.90;;;;;;4989904;28;20081;-78
2022/01/28 01:09:41;;;;;;;3.45;1.48;;;4.40;99.90;;;;;;4989741;28;20038;-80
2022/01/28 01:12:07;;;;;;;1.98;1.52;;;4.40;99.90;;;;;;4976805;28;20037;-79
2022/01/28 01:14:33;;;;;;;5.40;1.92;;;4.20;99.90;;;;;;4990818;28;20084;-82
2022/01/28 01:19:39;;;;;;;1.08;0.98;;;4.10;99.90;;;;;;4994764;28;19992;-83
2022/01/28 01:22:07;;;;;;;4.70;1.67;;;4.00;99.90;;;;;;4979817;28;20081;-85
2022/01/28 01:24:36;;;;;;;2.47;1.67;;;4.10;99.90;;;;;;4977256;28;20050;-81
2022/01/28 01:27:04;;;;;;;2.90;1.33;;;4.20;99.90;;;;;;4974171;28;20542;-82
2022/01/28 01:29:30;;;;;;;3.53;1.08;;;4.20;99.90;;;;;;4976131;28;20472;-79
2022/01/28 01:32:02;;;;;;;2.33;1.25;;;4.30;99.90;;;;;;4978738;28;20046;-82
2022/01/28 01:34:28;;;;;;;2.85;2.03;;;4.30;99.90;;;;;;4975247;28;20088;-85
2022/01/28 01:36:54;;;;;;;;;;;4.30;99.90;;;;;;4994717;28;20074;-77
2022/01/28 01:39:26;;;;;;;3.25;1.48;;;4.40;99.90;;;;;;4972486;28;19918;-83
2022/01/28 01:42:00;;;;;;;5.45;2.20;;;4.50;99.90;;;;;;4979427;28;20086;-83
2022/01/28 01:44:49;;;;;;;1.20;1.10;;;4.50;99.90;;;;;;4977638;28;20035;-82
2022/01/28 01:52:53;;;;;;;8.68;1.90;;;4.50;99.90;;;;;;5004922;28;20050;-77
2022/01/28 01:55:19;;;;;;;9.60;2.53;;;4.50;99.90;;;;;;4964775;28;20038;-83
2022/01/28 01:57:45;;;;;;;;;;;4.60;99.90;;;;;;4994424;28;20057;-79
2022/01/28 02:00:12;;;;;;;9.88;2.80;;;4.60;99.90;;;;;;4977489;28;19922;-81
2022/01/28 02:02:38;;;;;;;12.45;2.13;;;4.70;99.90;;;;;;4990304;28;20042;-84
2022/01/28 02:05:04;;;;;;;8.90;2.13;;;4.70;99.90;;;;;;4984401;28;20504;-83
2022/01/28 02:07:30;;;;;;;4.03;3.13;;;4.80;99.90;;;;;;4960747;28;20037;-80
2022/01/28 02:09:56;;;;;;;;;;;5.20;99.90;;;;;;4983784;28;20065;-77
2022/01/28 02:12:22;;;;;;;5.00;1.83;;;4.90;99.90;;;;;;4995413;28;19925;-82
2022/01/28 02:14:50;;;;;;;5.95;2.13;;;5.00;99.90;;;;;;4960130;28;20142;-82
2022/01/28 02:17:15;;;;;;;5.95;1.98;;;4.90;99.90;;;;;;4993234;28;20121;-79
2022/01/28 02:19:41;;;;;;;3.20;1.30;;;5.10;99.90;;;;;;4967494;28;20121;-80
2022/01/28 02:22:07;;;;;;;1.58;1.48;;;5.00;99.90;;;;;;4977240;28;20519;-82
2022/01/28 02:24:40;;;;;;;;;;;5.00;99.90;;;;;;4984325;28;20081;-81
2022/01/28 02:27:06;;;;;;;4.88;1.80;;;5.00;99.90;;;;;;4972075;28;19972;-77
2022/01/28 02:29:35;;;;;;;1.65;1.45;;;5.00;99.90;;;;;;4968627;28;20049;-78
2022/01/28 02:32:04;;;;;;;3.92;1.58;;;5.00;99.90;;;;;;4993106;28;20145;-80
2022/01/28 02:34:30;;;;;;;9.27;1.73;;;5.10;99.90;;;;;;4995621;28;20046;-81
2022/01/28 02:36:56;;;;;;;2.83;1.50;;;5.10;99.90;;;;;;4980139;28;20053;-78
2022/01/28 02:39:22;;;;;;;7.22;1.63;;;5.70;99.90;;;;;;4962424;28;20100;-80
2022/01/28 02:41:52;;;;;;;11.80;2.60;;;5.00;99.90;;;;;;4960309;28;20181;-83
2022/01/28 02:46:56;;;;;;;4.85;1.60;;;4.90;99.90;;;;;;4979149;28;20615;-82
2022/01/28 02:49:25;;;;;;;8.82;2.22;;;5.00;99.90;;;;;;4964262;28;20038;-83
2022/01/28 02:51:51;;;;;;;1.60;1.50;;;4.90;99.90;;;;;;4977024;28;20057;-79
2022/01/28 02:54:18;;;;;;;8.18;2.40;;;4.80;99.90;;;;;;4978541;28;20042;-80
2022/01/28 02:56:50;;;;;;;11.10;2.28;;;5.70;99.90;;;;;;5008620;28;20053;-79
2022/01/28 02:59:15;;;;;;;1.15;1.10;;;4.90;99.90;;;;;;4993165;28;20397;-84
2022/01/28 03:01:41;;;;;;;3.38;1.52;;;5.20;99.90;;;;;;4993337;28;20049;-82
2022/01/28 03:04:09;;;;;;;7.32;1.85;;;4.90;99.90;;;;;;4973987;28;20540;-82
2022/01/28 03:06:35;;;;;;;13.18;2.17;;;4.90;99.90;;;;;;4961706;28;20097;-82
2022/01/28 03:09:12;;;;;;;2.78;2.25;;;5.00;99.90;;;;;;4990047;28;20050;-81
2022/01/28 03:14:17;;;;;;;9.98;2.30;;;5.50;99.90;;;;;;4994889;28;20038;-79
2022/01/28 03:19:46;;;;;;;3.08;1.52;;;5.10;99.90;;;;;;5003328;28;20125;-84
2022/01/28 03:22:11;;;;;;;6.40;1.90;;;5.10;99.90;;;;;;4978919;28;20046;-79
2022/01/28 03:24:39;;;;;;;4.30;1.35;;;5.10;99.90;;;;;;4961217;28;20084;-82
2022/01/28 03:27:11;;;;;;;2.47;1.00;;;5.10;99.90;;;;;;4994046;28;20046;-82
2022/01/28 03:29:37;;;;;;;6.25;2.60;;;5.00;99.90;;;;;;4970849;28;20391;-82
2022/01/28 03:32:02;;;;;;;2.22;1.20;;;5.40;99.90;;;;;;4989113;28;20129;-84
2022/01/28 03:34:28;;;;;;;4.65;1.90;;;5.10;99.90;;;;;;4959767;28;20049;-85
2022/01/28 03:36:56;;;;;;;1.30;1.20;;;5.10;99.90;;;;;;4985838;28;20048;-78
2022/01/28 03:39:22;;;;;;;4.05;1.52;;;4.80;99.90;;;;;;4995237;28;20429;-80
2022/01/28 03:41:47;;;;;;;1.60;1.38;;;5.20;99.90;;;;;;4992315;28;20073;-84
2022/01/28 03:44:13;;;;;;;8.38;2.10;;;5.60;99.90;;;;;;4985435;28;20050;-82
2022/01/28 03:46:39;;;;;;;5.38;1.75;;;5.10;99.90;;;;;;4972521;28;20055;-85
2022/01/28 03:49:05;;;;;;;4.63;1.40;;;5.10;99.90;;;;;;4975622;28;20544;-83
2022/01/28 03:51:31;;;;;;;3.30;1.75;;;5.10;99.90;;;;;;4972095;28;20445;-81
2022/01/28 03:53:57;;;;;;;6.13;1.48;;;5.60;99.90;;;;;;4992118;28;20042;-83
2022/01/28 03:56:23;;;;;;;4.65;1.40;;;5.80;99.90;;;;;;4992991;28;20069;-79
2022/01/28 03:58:48;;;;;;;3.45;1.70;;;5.30;99.90;;;;;;4961932;28;20050;-83
2022/01/28 04:01:18;;;;;;;2.45;1.42;;;5.30;99.90;;;;;;4992411;28;20042;-81
2022/01/28 04:04:00;;;;;;;5.53;1.75;;;5.30;99.90;;;;;;4966680;28;20093;-80
2022/01/28 04:11:57;;;;;;;4.00;3.42;;;5.20;99.90;;;;;;4985914;28;20058;-79
2022/01/28 04:19:31;;;;;;;1.45;1.13;;;5.10;99.90;;;;;;4992985;28;20472;-83
2022/01/28 04:21:57;;;;;;;0.68;0.68;;;5.10;99.90;;;;;;4970858;28;20129;-83
2022/01/28 04:24:23;;;;;;;5.18;2.20;;;5.10;99.90;;;;;;4975918;28;20042;-78
2022/01/28 04:26:49;;;;;;;6.97;2.95;;;5.00;99.90;;;;;;4985688;28;20053;-80
2022/01/28 04:29:15;;;;;;;2.97;1.15;;;5.10;99.90;;;;;;4964108;28;20082;-78
2022/01/28 04:31:43;;;;;;;2.40;1.73;;;5.30;99.90;;;;;;4991016;28;20033;-80
2022/01/28 04:34:13;;;;;;;1.63;1.35;;;5.20;99.90;;;;;;4994052;28;20046;-81
2022/01/28 04:36:53;;;;;;;3.40;2.13;;;5.50;99.90;;;;;;4976000;28;20495;-78
2022/01/28 04:39:27;;;;;;;4.03;1.67;;;5.20;99.90;;;;;;4966064;28;20373;-80
2022/01/28 04:42:03;;;;;;;1.42;1.00;;;5.20;99.90;;;;;;4967302;28;20043;-83
2022/01/28 04:44:39;;;;;;;5.20;2.23;;;5.20;99.90;;;;;;4991173;28;20043;-82
2022/01/28 04:47:14;;;;;;;3.17;1.45;;;5.50;99.90;;;;;;4995035;28;20286;-80
2022/01/28 04:50:05;;;;;;;4.28;2.53;;;5.20;99.90;;;;;;4959375;28;20073;-84
2022/01/28 05:00:30;;;;;;;4.88;2.15;;;6.10;99.90;;;;;;4991142;28;20138;-82
2022/01/28 05:03:35;;;;;;;2.75;1.67;;;6.20;99.90;;;;;;4979515;28;20055;-82
2022/01/28 05:11:16;;;;;;;3.42;1.55;;;5.20;99.90;;;;;;4984365;28;20065;-79
2022/01/28 05:26:58;;;;;;;2.60;2.05;;;4.50;99.90;;;;;;4995188;28;20074;-79
2022/01/28 05:29:24;;;;;;;12.00;2.15;;;4.40;99.90;;;;;;4995894;28;20062;-81
2022/01/28 05:31:51;;;;;;;3.05;2.15;;;4.40;99.90;;;;;;4980326;28;20053;-78
2022/01/28 05:34:17;;;;;;;0.77;0.77;;;4.80;99.90;;;;;;4995179;28;20177;-85
2022/01/28 05:36:43;;;;;;;2.85;1.90;;;4.50;99.90;;;;;;4996472;28;20042;-81
2022/01/28 05:39:09;;;;;;;;;;;4.50;99.90;;;;;;4997323;28;20117;-80
2022/01/28 05:41:34;;;;;;;4.47;1.33;;;4.60;99.90;;;;;;4996821;28;19921;-85
2022/01/28 05:44:02;;;;;;;15.90;2.70;;;4.70;99.90;;;;;;4977962;28;20510;-81
2022/01/28 05:46:29;;;;;;;5.70;1.88;;;4.70;99.90;;;;;;4982606;28;20082;-81
2022/01/28 05:48:56;;;;;;;1.05;1.00;;;4.80;99.90;;;;;;4997065;28;20042;-82
2022/01/28 05:51:22;;;;;;;3.83;2.33;;;4.70;99.90;;;;;;4963816;28;20060;-83
2022/01/28 05:53:47;;;;;;;5.93;1.38;;;4.70;99.90;;;;;;4995540;28;20472;-78
2022/01/28 05:56:13;;;;;;;3.78;1.80;;;4.80;99.90;;;;;;4988480;28;20100;-80
2022/01/28 05:58:39;;;;;;;2.85;2.10;;;4.80;99.90;;;;;;4992639;28;20078;-82
2022/01/28 06:01:05;;;;;;;3.63;1.40;;;5.20;99.90;;;;;;4979428;28;20599;-83
2022/01/28 06:03:30;;;;;;;6.82;1.45;;;4.90;99.90;;;;;;4996741;28;20046;-79
2022/01/28 06:05:56;;;;;;;2.97;1.80;;;4.90;99.90;;;;;;4978346;28;20046;-81
2022/01/28 06:08:22;;;;;;;1.58;1.48;;;5.00;99.90;;;;;;4990721;28;20129;-82
2022/01/28 06:10:48;;;;;;;5.30;1.15;;;4.90;99.90;;;;;;4998007;28;20042;-82
2022/01/28 06:13:13;;;;;;;10.48;2.30;;;4.90;99.90;;;;;;4994955;28;20395;-82
2022/01/28 06:15:41;;;;;;;17.42;1.65;;;4.90;99.90;;;;;;4981363;28;20057;-79
2022/01/28 06:18:11;;;;;;;6.88;2.78;;;5.00;99.90;;;;;;4990112;28;20047;-79
2022/01/28 06:20:37;;;;;;;3.17;1.38;;;4.90;99.90;;;;;;5003698;28;20092;-81
2022/01/28 06:23:04;;;;;;;4.50;2.45;;;4.90;99.90;;;;;;4972112;28;20035;-82
2022/01/28 06:25:30;;;;;;;3.33;1.50;;;5.00;99.90;;;;;;4992519;28;20117;-81
2022/01/28 06:27:56;;;;;;;9.00;1.70;;;4.90;99.90;;;;;;4993154;28;20112;-83
2022/01/28 06:30:22;;;;;;;6.45;1.98;;;4.90;99.90;;;;;;4988834;28;20496;-79
2022/01/28 06:32:49;;;;;;;6.25;1.67;;;4.90;99.90;;;;;;4993462;28;20042;-81
2022/01/28 06:35:15;;;;;;;4.82;2.70;;;4.90;99.90;;;;;;4987312;28;20399;-82
2022/01/28 06:37:43;;;;;;;1.35;0.88;;;4.90;99.90;;;;;;4972772;28;20046;-83
2022/01/28 06:40:15;;;;;;;1.83;1.35;;;4.80;99.90;;;;;;4975408;28;20372;-83
2022/01/28 06:42:41;;;;;;;2.33;1.92;;;4.80;99.90;;;;;;4987198;28;20354;-80
2022/01/28 06:45:07;;;;;;;8.02;1.95;;;4.70;99.90;;;;;;4974868;28;20495;-77
2022/01/28 06:47:35;;;;;;;3.15;1.33;;;4.70;99.90;;;;;;4981660;28;20049;-80
2022/01/28 06:50:02;;;;;;;5.88;1.85;;;4.80;99.90;;;;;;4983238;28;20361;-78
2022/01/28 06:52:28;;;;;;;2.63;1.42;;;4.60;99.90;;;;;;4998449;28;20042;-78
2022/01/28 06:54:54;;;;;;;8.98;3.45;;;4.50;99.90;;;;;;4998327;28;20547;-78
2022/01/28 06:57:19;;;;;;;24.73;2.78;;;4.50;99.90;;;;;;4997903;28;20403;-80
2022/01/28 06:59:45;;;;;;;8.20;1.40;;;4.50;99.90;;;;;;5000599;28;20140;-79
2022/01/28 07:02:11;;;;;;;3.28;2.88;;;4.60;99.90;;;;;;4981843;28;20046;-80
2022/01/28 07:04:37;;;;;;;15.35;1.27;;;4.50;99.90;;;;;;4983351;28;20043;-81
2022/01/28 07:07:03;;;;;;;3.75;1.30;;;4.50;99.90;;;;;;4991703;28;20038;-79
2022/01/28 07:09:29;;;;;;;2.85;0.82;;;4.40;99.90;;;;;;4996340;28;20038;-79
2022/01/28 07:11:54;;;;;;;4.32;1.05;;;4.50;99.90;;;;;;4975439;28;20210;-78
2022/01/28 07:14:20;;;;;;;10.10;1.27;;;4.50;99.90;;;;;;4999394;28;20043;-77
2022/01/28 07:16:46;;;;;;;5.38;1.70;;;4.50;99.90;;;;;;5003517;28;20125;-78
2022/01/28 07:19:11;;;;;;;8.55;1.83;;;4.50;99.90;;;;;;4992501;28;20080;-77
2022/01/28 07:21:37;;;;;;;13.77;2.55;;;4.60;99.90;;;;;;4988326;28;20125;-78
2022/01/28 07:24:03;;;;;;;12.60;2.25;;;4.50;99.90;;;;;;4996699;28;20043;-79
2022/01/28 07:26:29;;;;;;;;;;;4.50;99.90;;;;;;4992475;28;20034;-77
2022/01/28 07:28:55;;;;;;;4.28;1.23;;;4.50;99.90;;;;;;4981166;28;20272;-75
2022/01/28 07:31:21;;;;;;;3.55;1.48;;;4.40;99.90;;;;;;4996584;28;20499;-77
2022/01/28 07:33:47;;;;;;;0.80;0.80;;;4.40;99.90;;;;;;4987539;28;20703;-77
2022/01/28 07:36:13;;;;;;;6.68;2.33;;;4.40;99.90;;;;;;5002306;28;20133;-78
2022/01/28 07:38:39;;;;;;;1.27;1.17;;;4.40;99.90;;;;;;4997331;28;20038;-79
2022/01/28 07:41:05;;;;;;;3.63;1.42;;;4.50;99.90;;;;;;4989260;28;20361;-78
2022/01/28 07:43:34;;;;;;;7.18;1.45;;;4.50;99.90;;;;;;4968247;28;20042;-80
2022/01/28 07:46:00;;;;;;;2.45;1.33;;;4.50;99.90;;;;;;4973731;28;20121;-79
2022/01/28 07:48:26;;;;;;;3.50;1.90;;;4.60;99.90;;;;;;4972477;28;20838;-77
2022/01/28 07:50:51;;;;;;;12.02;1.88;;;4.60;99.90;;;;;;4970840;28;20070;-77
2022/01/28 07:53:17;;;;;;;4.43;1.77;;;4.70;99.90;;;;;;4988814;28;20038;-80
2022/01/28 07:55:44;;;;;;;6.32;1.42;;;4.60;99.90;;;;;;4971226;28;20061;-80
2022/01/28 07:58:09;;;;;;;12.13;1.75;;;4.50;99.90;;;;;;4993166;28;20093;-78
2022/01/28 08:00:35;;;;;;;1.85;0.95;;;4.50;99.90;;;;;;4985493;28;20152;-79
2022/01/28 08:03:01;;;;;;;4.30;1.77;;;4.50;99.90;;;;;;4973778;28;20041;-82
2022/01/28 08:05:28;;;;;;;9.82;1.90;;;4.50;99.90;;;;;;4962184;28;20042;-79
2022/01/28 08:07:54;;;;;;;4.53;2.00;;;4.50;99.90;;;;;;5000215;28;20047;-80
2022/01/28 08:10:20;;;;;;;2.33;1.65;;;4.40;99.90;;;;;;4996542;28;20037;-80
2022/01/28 08:12:47;;;;;;;3.75;2.20;;;4.30;99.90;;;;;;5001094;28;20134;-78
2022/01/28 08:15:13;;;;;;;13.43;1.45;;;4.30;99.90;;;;;;4991399;28;20052;-80
2022/01/28 08:17:39;;;;;;;4.20;1.33;;;4.30;99.90;;;;;;4972402;28;20049;-79
2022/01/28 08:20:05;;;;;;;1.90;1.80;;;4.40;99.90;;;;;;4980954;28;20361;-77
2022/01/28 08:22:31;;;;;;;4.38;1.23;;;4.40;99.90;;;;;;5002153;28;20050;-78
2022/01/28 08:24:57;;;;;;;8.88;1.85;;;4.40;99.90;;;;;;4983922;28;20036;-77
2022/01/28 08:27:22;;;;;;;2.63;1.13;;;4.40;99.90;;;;;;5001588;28;20384;-79
2022/01/28 08:29:48;;;;;;;2.60;1.55;;;4.50;99.90;;;;;;4997878;28;20042;-76
2022/01/28 08:32:14;;;;;;;4.05;1.52;;;4.60;99.90;;;;;;4995316;28;20189;-81
2022/01/28 08:34:40;;;;;;;8.48;1.70;;;5.40;99.90;;;;;;4993895;28;20077;-76
2022/01/28 08:37:06;;;;;;;3.10;1.83;;;4.50;99.90;;;;;;4994153;28;20453;-78
2022/01/28 08:39:34;;;;;;;6.93;2.00;;;4.40;99.90;;;;;;4969667;28;20050;-80
2022/01/28 08:42:00;;;;;;;4.82;1.38;;;4.40;99.90;;;;;;4990890;28;20042;-80
2022/01/28 08:44:26;;;;;;;1.80;1.65;;;4.40;99.90;;;;;;4989357;28;20129;-81
2022/01/28 08:46:52;;;;;;;1.33;1.25;;;4.30;99.90;;;;;;4982645;28;20069;-81
2022/01/28 08:49:17;;;;;;;1.20;1.10;;;4.40;99.90;;;;;;4999787;28;20042;-84
2022/01/28 08:51:45;;;;;;;;;;;4.40;99.90;;;;;;4970749;28;20042;-84
2022/01/28 08:54:10;;;;;;;3.00;1.70;;;4.50;99.90;;;;;;4957450;28;20004;-80
2022/01/28 08:56:36;;;;;;;3.15;1.80;;;4.50;99.90;;;;;;4990734;28;20150;-78
2022/01/28 08:59:02;;;;;;;3.25;1.55;;;4.50;99.90;;;;;;4973115;28;20057;-80
2022/01/28 09:01:29;;;;;;;6.57;2.15;;;4.60;99.90;;;;;;4990502;28;20532;-79
2022/01/28 09:03:55;;;;;;;7.07;1.77;;;4.60;99.90;;;;;;4998302;28;20054;-80
2022/01/28 09:06:21;;;;;;;1.35;1.25;;;4.70;99.90;;;;;;4975035;28;20524;-80
2022/01/28 09:08:49;;;;;;;4.75;1.60;;;4.70;99.90;;;;;;4949207;28;20046;-80
2022/01/28 09:13:50;;;;;;;4.72;1.55;;;4.70;99.90;;;;;;4981494;28;20061;-80
2022/01/28 09:16:17;;;;;;;2.58;1.23;;;4.80;99.90;;;;;;4988479;28;20058;-80
2022/01/28 09:18:43;;;;;;;5.35;1.67;;;4.90;99.90;;;;;;4976590;28;20046;-79
2022/01/28 09:21:08;;;;;;;10.45;1.65;;;5.00;99.90;;;;;;4991910;28;20048;-79
2022/01/28 09:23:34;;;;;;;8.65;2.13;;;5.10;99.90;;;;;;4979421;28;20050;-79
2022/01/28 09:26:02;;;;;;;7.28;1.92;;;5.20;99.90;;;;;;4990956;28;20065;-79
2022/01/28 09:28:27;;;;;;;10.82;1.65;;;6.20;99.90;;;;;;4993890;28;20038;-80
2022/01/28 09:30:53;;;;;;;4.72;2.33;;;5.50;99.90;;;;;;4972842;28;20046;-80
2022/01/28 09:33:19;;;;;;;11.98;1.50;;;5.50;99.90;;;;;;4991569;28;20125;-79
2022/01/28 09:35:45;;;;;;;13.25;2.20;;;6.30;99.90;;;;;;4988473;28;20057;-80
2022/01/28 09:38:11;;;;;;;2.42;1.83;;;5.70;99.90;;;;;;4978746;28;20085;-80
2022/01/28 09:40:38;;;;;;;6.13;1.50;;;5.90;99.90;;;;;;4993666;28;20042;-80
2022/01/28 09:43:07;;;;;;;13.38;2.17;;;5.90;99.90;;;;;;4989782;28;20066;-81
2022/01/28 09:45:33;;;;;;;6.85;1.52;;;6.10;99.90;;;;;;4966863;28;20046;-80
2022/01/28 09:47:59;;;;;;;1.17;1.10;;;6.20;99.90;;;;;;4975047;28;20084;-80
2022/01/28 09:50:27;;;;;;;11.60;1.75;;;6.20;99.90;;;;;;4969040;28;20042;-80
2022/01/28 09:52:54;;;;;;;8.70;1.80;;;6.30;99.90;;;;;;4997291;28;20049;-80
2022/01/28 09:55:21;;;;;;;7.95;1.85;;;6.40;99.90;;;;;;4977910;28;20116;-80
2022/01/28 09:57:52;;;;;;;4.07;1.23;;;6.40;99.90;;;;;;4994316;28;20042;-80
2022/01/28 10:00:22;;;;;;;2.35;1.27;;;6.40;99.90;;;;;;4989595;28;20121;-80
2022/01/28 10:02:55;;;;;;;2.17;1.33;;;6.40;99.90;;;;;;4984594;28;20046;-81
2022/01/28 10:05:27;;;;;;;6.88;1.92;;;6.50;99.90;;;;;;4979737;28;20041;-79
2022/01/28 10:08:40;;;;;;;8.85;2.85;;;6.50;99.90;;;;;;4980470;28;20046;-79
2022/01/28 10:11:10;;;;;;;15.35;2.70;;;6.50;99.90;;;;;;4987956;28;20061;-79
2022/01/28 10:16:30;;;;;;;1.83;1.38;;;6.50;99.90;;;;;;4995353;28;20042;-78
2022/01/28 10:19:00;;;;;;;8.88;1.52;;;6.50;99.90;;;;;;4994151;28;20186;-78
2022/01/28 10:21:29;;;;;;;7.70;2.38;;;6.50;99.90;;;;;;4972394;28;20051;-76
2022/01/28 10:24:00;;;;;;;2.15;1.52;;;6.60;99.90;;;;;;4997538;28;20052;-79
2022/01/28 10:26:37;;;;;;;8.18;2.08;;;6.60;99.90;;;;;;5008081;28;20038;-78
2022/01/28 10:29:18;;;;;;;1.10;1.08;;;6.60;99.90;;;;;;5009398;28;20384;-80
2022/01/28 10:31:45;;;;;;;4.68;1.58;;;6.70;99.90;;;;;;4982034;28;20034;-77
2022/01/28 10:34:20;;;;;;;8.35;1.48;;;6.70;99.90;;;;;;4992418;28;20381;-77
2022/01/28 10:36:48;;;;;;;2.63;1.73;;;6.80;99.90;;;;;;4994021;28;20105;-78
2022/01/28 10:39:24;;;;;;;7.22;1.88;;;6.80;99.90;;;;;;4994225;28;20121;-78
2022/01/28 10:41:51;;;;;;;8.23;1.53;;;6.80;99.90;;;;;;4965976;28;20047;-78
2022/01/28 10:44:17;;;;;;;4.78;2.38;;;6.80;99.90;;;;;;4981703;28;20793;-79
2022/01/28 10:46:51;;;;;;;3.35;1.48;;;6.90;99.90;;;;;;4959053;28;20117;-78
2022/01/28 10:49:17;;;;;;;9.15;2.17;;;6.90;99.90;;;;;;4975638;28;20038;-77
2022/01/28 10:51:45;;;;;;;4.32;1.33;;;6.90;99.90;;;;;;4960677;28;20409;-75
2022/01/28 10:54:16;;;;;;;18.05;3.42;;;6.90;99.90;;;;;;4972546;28;20042;-73
2022/01/28 10:57:01;;;;;;;11.50;2.13;;;6.90;99.90;;;;;;4989497;28;20365;-74
2022/01/28 10:59:45;;;;;;;3.00;2.17;;;6.90;99.90;;;;;;4988352;28;20068;-74
2022/01/28 11:02:12;;;;;;;11.60;2.22;;;6.90;99.90;;;;;;4986268;28;20050;-74
2022/01/28 11:04:39;;;;;;;4.10;1.63;;;7.40;99.90;;;;;;4969982;28;20172;-75
2022/01/28 11:07:05;;;;;;;3.60;1.83;;;6.90;99.90;;;;;;4971902;28;20100;-74
2022/01/28 11:09:31;;;;;;;9.70;2.15;;;6.90;99.90;;;;;;4972823;28;20105;-77
2022/01/28 11:11:58;;;;;;;4.35;2.60;;;7.00;99.90;;;;;;4989972;28;20449;-79
2022/01/28 11:14:25;;;;;;;5.00;1.60;;;7.00;99.90;;;;;;4987281;28;20101;-78
2022/01/28 11:16:51;;;;;;;5.93;1.63;;;7.10;99.90;;;;;;4978507;28;20047;-78
2022/01/28 11:19:19;;;;;;;11.93;2.35;;;7.80;99.90;;;;;;4987896;28;20038;-78
2022/01/28 11:22:09;;;;;;;2.58;1.88;;;8.00;99.90;;;;;;4991317;28;20066;-77
2022/01/28 11:25:04;;;;;;;2.38;1.88;;;7.00;99.90;;;;;;4964915;28;20065;-77
2022/01/28 11:27:34;;;;;;;3.08;1.52;;;7.00;99.90;;;;;;4983835;28;20493;-77
2022/01/28 11:30:22;;;;;;;4.47;2.25;;;6.90;99.90;;;;;;5007117;28;20054;-77
2022/01/28 11:33:12;;;;;;;3.25;1.83;;;6.80;99.90;;;;;;4990311;28;20035;-77
2022/01/28 11:35:47;;;;;;;3.40;2.13;;;6.70;99.90;;;;;;4967244;28;20042;-78
2022/01/28 11:38:24;;;;;;;3.58;2.13;;;6.50;99.90;;;;;;4992972;28;20042;-79
2022/01/28 11:40:56;;;;;;;9.27;2.20;;;6.50;99.90;;;;;;4997110;28;20042;-78
2022/01/28 11:43:24;;;;;;;15.20;3.35;;;6.40;99.90;;;;;;5004337;28;20038;-78
2022/01/28 11:46:07;;;;;;;3.72;2.08;;;6.50;99.90;;;;;;4989122;28;20050;-78
2022/01/28 11:49:04;;;;;;;4.03;1.83;;;6.60;99.90;;;;;;4977067;28;20050;-78
2022/01/28 11:51:32;;;;;;;2.60;1.48;;;6.80;99.90;;;;;;4976326;28;20473;-79
2022/01/28 11:54:00;;;;;;;2.70;1.83;;;7.00;99.90;;;;;;4997879;28;20042;-79
2022/01/28 11:56:27;;;;;;;4.95;2.38;;;7.00;99.90;;;;;;4996630;28;20117;-79
2022/01/28 11:59:09;;;;;;;7.40;1.63;;;7.10;99.90;;;;;;4980626;28;20105;-79
2022/01/28 12:01:38;;;;;;;2.92;1.63;;;7.10;99.90;;;;;;4992595;28;20065;-77
2022/01/28 12:04:25;;;;;;;5.75;1.67;;;7.10;99.90;;;;;;4994835;28;20109;-79
2022/01/28 12:07:00;;;;;;;7.07;1.92;;;7.20;99.90;;;;;;4988402;28;20046;-78
2022/01/28 12:09:26;;;;;;;8.65;2.20;;;7.20;99.90;;;;;;4987854;28;20042;-77
2022/01/28 12:11:52;;;;;;;6.20;1.58;;;7.30;99.90;;;;;;4979934;28;20046;-79
2022/01/28 12:14:39;;;;;;;4.47;2.22;;;7.30;99.90;;;;;;4989539;28;20137;-79
2022/01/28 12:17:29;;;;;;;5.50;2.10;;;7.30;99.90;;;;;;4975008;28;20050;-79
2022/01/28 12:20:19;;;;;;;3.88;1.40;;;7.40;99.90;;;;;;4981202;28;20042;-79
2022/01/28 12:23:00;;;;;;;5.95;2.55;;;7.50;99.90;;;;;;4995796;28;20046;-77
2022/01/28 12:25:35;;;;;;;3.53;1.52;;;7.50;99.90;;;;;;4991914;28;20065;-78
2022/01/28 12:28:10;;;;;;;1.63;1.20;;;7.40;99.90;;;;;;4982401;28;20038;-78
2022/01/28 12:30:36;;;;;;;2.13;1.15;;;7.20;99.90;;;;;;4984548;28;20508;-79
2022/01/28 12:33:02;;;;;;;1.63;1.52;;;7.10;99.90;;;;;;4991119;28;20054;-79
2022/01/28 12:35:28;;;;;;;1.27;0.82;;;7.00;99.90;;;;;;4992306;28;20154;-78
2022/01/28 12:38:01;;;;;;;2.28;1.58;;;7.00;99.90;;;;;;4975402;28;20071;-79
2022/01/28 12:40:35;;;;;;;4.68;1.95;;;7.00;99.90;;;;;;4990889;28;20042;-78
2022/01/28 12:43:02;;;;;;;3.70;1.08;;;7.00;99.90;;;;;;4976281;28;20042;-78
2022/01/28 12:45:27;;;;;;;5.43;1.60;;;7.00;99.90;;;;;;4974929;28;20042;-79
2022/01/28 12:47:53;;;;;;;3.42;1.63;;;7.10;99.90;;;;;;4991588;28;20042;-78
2022/01/28 12:50:20;;;;;;;3.55;1.67;;;7.30;99.90;;;;;;5006960;28;20069;-78
2022/01/28 12:52:47;;;;;;;5.75;1.60;;;7.20;99.90;;;;;;4978628;28;20085;-77
2022/01/28 12:55:13;;;;;;;4.22;1.75;;;7.20;99.90;;;;;;4975061;28;20500;-77
2022/01/28 12:57:43;;;;;;;2.13;1.13;;;7.30;99.90;;;;;;4992784;28;20046;-79
2022/01/28 13:00:10;;;;;;;9.55;1.23;;;7.30;99.90;;;;;;4997786;28;20073;-77
2022/01/28 13:02:36;;;;;;;2.70;1.05;;;7.40;99.90;;;;;;4990613;28;20149;-78
2022/01/28 13:10:39;;;;;;;5.50;1.05;;;7.50;99.90;;;;;;4911253;29;20075;-78
2022/01/28 13:13:09;;;;;;;2.45;1.75;;;7.60;99.90;;;;;;4916890;29;20219;-77
2022/01/28 13:15:36;;;;;;;1.40;0.88;;;7.50;99.90;;;;;;4953557;28;20070;-78
2022/01/28 13:18:04;;;;;;;3.85;1.48;;;7.50;99.90;;;;;;4989589;28;20072;-77
2022/01/28 13:20:41;;;;;;;6.10;1.83;;;7.50;99.90;;;;;;4989358;28;20100;-78
2022/01/28 13:23:11;;;;;;;2.08;1.33;;;7.40;99.90;;;;;;4974036;28;20046;-78
2022/01/28 13:25:38;;;;;;;7.95;1.85;;;7.40;99.90;;;;;;4993446;28;20043;-78
2022/01/28 13:28:14;;;;;;;0.95;0.95;;;7.40;99.90;;;;;;5006247;28;20046;-79
2022/01/28 13:30:41;;;;;;;6.30;2.22;;;7.30;99.90;;;;;;4995416;28;20039;-77
2022/01/28 13:33:11;;;;;;;6.55;1.67;;;7.30;99.90;;;;;;4999902;28;20046;-77
2022/01/28 13:35:39;;;;;;;3.55;1.52;;;7.40;99.90;;;;;;4993116;28;20058;-79
2022/01/28 13:38:17;;;;;;;3.20;1.75;;;7.40;99.90;;;;;;4995319;28;20058;-77
2022/01/28 13:40:43;;;;;;;4.25;1.08;;;7.50;99.90;;;;;;4993986;28;20058;-77
2022/01/28 13:43:10;;;;;;;2.28;1.65;;;7.50;99.90;;;;;;5001996;28;20050;-79
2022/01/28 13:45:40;;;;;;;5.18;2.35;;;7.40;99.90;;;;;;5001206;28;20050;-77
2022/01/28 13:48:08;;;;;;;4.10;1.40;;;7.30;99.90;;;;;;5002569;28;20057;-78
2022/01/28 13:50:41;;;;;;;10.40;2.15;;;7.20;99.90;;;;;;4974890;28;20494;-78
2022/01/28 13:55:45;;;;;;;6.88;2.03;;;7.30;99.90;;;;;;5012752;28;20048;-78
2022/01/28 13:58:10;;;;;;;1.25;0.90;;;7.30;99.90;;;;;;4997435;28;20496;-78
2022/01/28 14:00:50;;;;;;;2.47;1.50;;;7.40;99.90;;;;;;5005383;28;20054;-79
2022/01/28 14:03:28;;;;;;;13.73;2.22;;;7.40;99.90;;;;;;4992739;28;20094;-78
2022/01/28 14:06:00;;;;;;;2.17;1.20;;;7.40;99.90;;;;;;5002008;28;20049;-78
2022/01/28 14:08:45;;;;;;;4.22;1.55;;;7.50;99.90;;;;;;4993485;28;20038;-78
2022/01/28 14:11:34;;;;;;;5.68;1.25;;;7.50;99.90;;;;;;5001580;28;20049;-78
2022/01/28 14:14:04;;;;;;;1.27;1.17;;;7.60;99.90;;;;;;4970966;28;20073;-77
2022/01/28 14:16:30;;;;;;;9.93;1.77;;;7.70;99.90;;;;;;4993312;28;20061;-76
2022/01/28 14:18:56;;;;;;;2.60;1.75;;;7.60;99.90;;;;;;5009964;28;20046;-77
2022/01/28 14:21:22;;;;;;;;;;;7.50;99.90;;;;;;4993786;28;20057;-76
2022/01/28 14:23:47;;;;;;;1.42;1.33;;;7.50;99.90;;;;;;4973728;28;19926;-78
2022/01/28 14:26:14;;;;;;;4.13;1.55;;;7.60;99.90;;;;;;4992166;28;20364;-77
2022/01/28 14:29:09;;;;;;;6.13;1.65;;;7.80;99.90;;;;;;5004849;28;20053;-77
2022/01/28 14:31:26;;;;;;;2.20;1.50;;;7.90;99.90;;;;;;4999622;28;20068;-77
2022/01/28 14:33:54;;;;;;;5.40;1.05;;;7.80;99.90;;;;;;4992451;28;20239;-78
2022/01/28 14:36:20;;;;;;;3.67;1.77;;;7.70;99.90;;;;;;4997643;28;20104;-77